Mosaheb4 — SSAA — position and weather

sailwx.info

Track history (hours):
 
Tides and Currents Weather Stations Pressure Air Temp Water Temp Dewpoint Dewpoint Depression Visibility Wind Speed Wind Dir Waves Ship Positions

Mosaheb4

Last reported at 2017-Dec-21 18:32 UTC. Time now 2018-Jan-22 16:21 UTC.
Position N 31°13' E 032°20'.
Warning: this ship's position is 31 days out of date.

; draft 6.5 m.

Type: Ship. MMSI: 622123404.

Date/timePositionNaut miles runAvg speedWind from/ knotsBaromVisibWave heightAir tempDewpointWater temp
2017-Dec-21 18:32N 31°13' E 032°20'0 0.0
2017-Dec-21 18:26N 31°13' E 032°20'0 0.0
2017-Dec-21 17:59N 31°13' E 032°20'0 0.0
2017-Dec-21 17:29N 31°13' E 032°20'1 1.5
2017-Dec-21 17:00N 31°12' E 032°20'3 5.3
2017-Dec-21 16:30N 31°14' E 032°18'1 2.5
2017-Dec-21 16:00N 31°15' E 032°19'0 0.0
2017-Dec-21 15:30N 31°15' E 032°19'0 0.0
2017-Dec-21 14:57N 31°15' E 032°19'0 0.0
2017-Dec-21 14:30N 31°15' E 032°19'0 0.0
2017-Dec-21 14:00N 31°15' E 032°19'0 0.0
2017-Dec-21 13:30N 31°15' E 032°19'0 0.0
2017-Dec-21 13:00N 31°15' E 032°19'0 0.0
2017-Dec-21 12:30N 31°15' E 032°19'0 0.0
2017-Dec-21 12:00N 31°15' E 032°19'0 0.0
2017-Dec-21 11:30N 31°15' E 032°19'0 0.0
2017-Dec-21 11:00N 31°15' E 032°19'0 0.0
2017-Dec-21 10:30N 31°15' E 032°19'0 0.0
2017-Dec-21 10:00N 31°15' E 032°19'0 0.0
2017-Dec-21 09:24N 31°15' E 032°19'0 0.0
2017-Dec-21 09:00N 31°15' E 032°19'0 0.0
2017-Dec-21 08:30N 31°15' E 032°19'0 0.0
2017-Dec-21 08:00N 31°15' E 032°19'0 0.0
2017-Dec-21 07:24N 31°15' E 032°19'0 0.0
2017-Dec-21 05:15N 31°15' E 032°19'3 0.1
2017-Dec-19 17:15N 31°13' E 032°20'1 1.3
2017-Dec-19 16:40N 31°12' E 032°20'1 0.1
2017-Dec-19 11:43N 31°12' E 032°21'4 0.3
2017-Dec-18 23:53N 31°15' E 032°19'0 0.0
2017-Dec-18 17:02N 31°15' E 032°19'0 0.0
2017-Dec-18 16:59N 31°15' E 032°19'0 0.0
2017-Dec-18 16:29N 31°15' E 032°19'0 0.0
2017-Dec-18 15:59N 31°15' E 032°19'0 0.0
2017-Dec-18 15:29N 31°15' E 032°19'0 0.0
2017-Dec-18 14:59N 31°15' E 032°19'0 0.0
2017-Dec-18 14:26N 31°15' E 032°19'0 0.0
2017-Dec-18 13:59N 31°15' E 032°19'0 0.0
2017-Dec-18 13:29N 31°15' E 032°19'0 0.0
2017-Dec-18 12:59N 31°15' E 032°19'0 0.0
2017-Dec-17 19:02N 31°15' E 032°19'0 0.1
2017-Dec-17 18:56N 31°15' E 032°19'0 0.0
2017-Dec-17 18:26N 31°15' E 032°19'0 0.0
2017-Dec-17 17:50N 31°15' E 032°19'0 0.0
2017-Dec-17 16:56N 31°15' E 032°19'0 0.0
2017-Dec-17 16:26N 31°15' E 032°19'0 0.0
2017-Dec-17 15:56N 31°15' E 032°19'0 0.0
2017-Dec-17 15:26N 31°15' E 032°19'0 0.0
2017-Dec-17 14:38N 31°15' E 032°19'0 0.0
2017-Dec-17 14:26N 31°15' E 032°19'0 0.0
2017-Dec-17 13:59N 31°15' E 032°19'0 0.0
2017-Dec-17 13:29N 31°15' E 032°19'0 0.0
2017-Dec-17 12:56N 31°15' E 032°19'0 0.0
2017-Dec-17 12:29N 31°15' E 032°19'1 1.2
2017-Dec-17 12:00N 31°16' E 032°19'  
2017-Dec-12 10:09N 31°15' E 032°19'0 0.0
2017-Dec-12 10:00N 31°15' E 032°19'0 0.1
2017-Dec-12 08:14N 31°15' E 032°19'4 2.5
2017-Dec-12 06:43N 31°12' E 032°20'1 0.3
2017-Dec-12 02:52N 31°13' E 032°20'0 0.0
2017-Dec-12 02:29N 31°13' E 032°20'0 0.0
2017-Dec-12 01:59N 31°13' E 032°20'  
Track history (hours):
 
Tides and Currents Weather Stations Pressure Air Temp Water Temp Dewpoint Dewpoint Depression Visibility Wind Speed Wind Dir Waves Ship Positions

Mosaheb4

Last reported at 2017-Dec-21 18:32 UTC. Time now 2018-Jan-22 16:21 UTC.
Position N 31°13' E 032°20'.
Warning: this ship's position is 31 days out of date.

; draft 6.5 m.

Type: Ship. MMSI: 622123404.

Date/timePositionNaut miles runAvg speedWind from/ knotsBaromVisibWave heightAir tempDewpointWater temp
2017-Dec-21 18:32N 31°13' E 032°20'0 0.0
2017-Dec-21 18:26N 31°13' E 032°20'0 0.0
2017-Dec-21 17:59N 31°13' E 032°20'0 0.0
2017-Dec-21 17:29N 31°13' E 032°20'1 1.5
2017-Dec-21 17:00N 31°12' E 032°20'3 5.3
2017-Dec-21 16:30N 31°14' E 032°18'1 2.5
2017-Dec-21 16:00N 31°15' E 032°19'0 0.0
2017-Dec-21 15:30N 31°15' E 032°19'0 0.0
2017-Dec-21 14:57N 31°15' E 032°19'0 0.0
2017-Dec-21 14:30N 31°15' E 032°19'0 0.0
2017-Dec-21 14:00N 31°15' E 032°19'0 0.0
2017-Dec-21 13:30N 31°15' E 032°19'0 0.0
2017-Dec-21 13:00N 31°15' E 032°19'0 0.0
2017-Dec-21 12:30N 31°15' E 032°19'0 0.0
2017-Dec-21 12:00N 31°15' E 032°19'0 0.0
2017-Dec-21 11:30N 31°15' E 032°19'0 0.0
2017-Dec-21 11:00N 31°15' E 032°19'0 0.0
2017-Dec-21 10:30N 31°15' E 032°19'0 0.0
2017-Dec-21 10:00N 31°15' E 032°19'0 0.0
2017-Dec-21 09:24N 31°15' E 032°19'0 0.0
2017-Dec-21 09:00N 31°15' E 032°19'0 0.0
2017-Dec-21 08:30N 31°15' E 032°19'0 0.0
2017-Dec-21 08:00N 31°15' E 032°19'0 0.0
2017-Dec-21 07:24N 31°15' E 032°19'0 0.0
2017-Dec-21 05:15N 31°15' E 032°19'3 0.1
2017-Dec-19 17:15N 31°13' E 032°20'1 1.3
2017-Dec-19 16:40N 31°12' E 032°20'1 0.1
2017-Dec-19 11:43N 31°12' E 032°21'4 0.3
2017-Dec-18 23:53N 31°15' E 032°19'0 0.0
2017-Dec-18 17:02N 31°15' E 032°19'0 0.0
2017-Dec-18 16:59N 31°15' E 032°19'0 0.0
2017-Dec-18 16:29N 31°15' E 032°19'0 0.0
2017-Dec-18 15:59N 31°15' E 032°19'0 0.0
2017-Dec-18 15:29N 31°15' E 032°19'0 0.0
2017-Dec-18 14:59N 31°15' E 032°19'0 0.0
2017-Dec-18 14:26N 31°15' E 032°19'0 0.0
2017-Dec-18 13:59N 31°15' E 032°19'0 0.0
2017-Dec-18 13:29N 31°15' E 032°19'0 0.0
2017-Dec-18 12:59N 31°15' E 032°19'0 0.0
2017-Dec-17 19:02N 31°15' E 032°19'0 0.1
2017-Dec-17 18:56N 31°15' E 032°19'0 0.0
2017-Dec-17 18:26N 31°15' E 032°19'0 0.0
2017-Dec-17 17:50N 31°15' E 032°19'0 0.0
2017-Dec-17 16:56N 31°15' E 032°19'0 0.0
2017-Dec-17 16:26N 31°15' E 032°19'0 0.0
2017-Dec-17 15:56N 31°15' E 032°19'0 0.0
2017-Dec-17 15:26N 31°15' E 032°19'0 0.0
2017-Dec-17 14:38N 31°15' E 032°19'0 0.0
2017-Dec-17 14:26N 31°15' E 032°19'0 0.0
2017-Dec-17 13:59N 31°15' E 032°19'0 0.0
2017-Dec-17 13:29N 31°15' E 032°19'0 0.0
2017-Dec-17 12:56N 31°15' E 032°19'0 0.0
2017-Dec-17 12:29N 31°15' E 032°19'1 1.2
2017-Dec-17 12:00N 31°16' E 032°19'  
2017-Dec-12 10:09N 31°15' E 032°19'0 0.0
2017-Dec-12 10:00N 31°15' E 032°19'0 0.1
2017-Dec-12 08:14N 31°15' E 032°19'4 2.5
2017-Dec-12 06:43N 31°12' E 032°20'1 0.3
2017-Dec-12 02:52N 31°13' E 032°20'0 0.0
2017-Dec-12 02:29N 31°13' E 032°20'0 0.0
2017-Dec-12 01:59N 31°13' E 032°20'  

Dump ship's entire track history